Time;durP1;ratioP1;P1;durP2;ratioP2;P2;SDS_P1;SDS_P2;PMS_P1;PMS_P2;Temp;Humidity;BMP_temperature;BMP_pressure;BME280_temperature;BME280_humidity;BME280_pressure;Samples;Min_cycle;Max_cycle;Signal;HPM_P1;HPM_P2
2024/03/07 00:02:06;;;;;;;18.17;3.85;;;;;;;4.46;100.00;100803.69;4964198;28;20085;-68
2024/03/07 00:04:32;;;;;;;10.25;3.60;;;;;;;4.45;100.00;100805.56;4978597;28;20026;-68
2024/03/07 00:06:57;;;;;;;11.25;4.47;;;;;;;4.43;100.00;100798.63;4980524;28;20035;-68
2024/03/07 00:09:24;;;;;;;8.65;3.97;;;;;;;4.40;100.00;100796.38;4996906;28;20027;-67
2024/03/07 00:11:50;;;;;;;11.15;4.13;;;;;;;4.35;100.00;100790.81;5011551;28;20514;-67
2024/03/07 00:14:15;;;;;;;12.45;3.70;;;;;;;4.33;100.00;100788.28;4980570;28;20035;-67
2024/03/07 00:16:42;;;;;;;10.07;3.45;;;;;;;4.25;100.00;100785.94;4976938;28;20034;-67
2024/03/07 00:19:07;;;;;;;11.70;3.88;;;;;;;4.24;100.00;100781.53;5012237;28;20023;-67
2024/03/07 00:21:33;;;;;;;16.73;4.25;;;;;;;4.17;100.00;100787.16;4977151;28;20054;-68
2024/03/07 00:23:59;;;;;;;12.00;4.82;;;;;;;4.14;100.00;100784.91;4992613;28;20035;-68
2024/03/07 00:26:25;;;;;;;9.27;3.70;;;;;;;4.09;100.00;100790.28;4996404;28;20026;-68
2024/03/07 00:28:51;;;;;;;9.70;4.45;;;;;;;4.06;100.00;100788.03;4996076;28;20042;-67
2024/03/07 00:31:16;;;;;;;11.02;4.32;;;;;;;3.92;100.00;100781.97;4995265;28;20046;-68
2024/03/07 00:33:42;;;;;;;12.95;4.60;;;;;;;3.90;100.00;100783.31;4986048;28;20065;-67
2024/03/07 00:36:08;;;;;;;10.30;4.60;;;;;;;3.91;100.00;100783.06;4993063;28;20035;-68
2024/03/07 00:38:34;;;;;;;16.88;5.05;;;;;;;3.87;100.00;100781.03;4994608;28;20109;-67
2024/03/07 00:40:59;;;;;;;10.15;4.78;;;;;;;3.86;100.00;100774.72;4964109;28;20038;-68
2024/03/07 00:43:25;;;;;;;13.32;4.78;;;;;;;3.84;100.00;100774.13;4980959;28;20117;-68
2024/03/07 00:45:50;;;;;;;14.95;5.72;;;;;;;3.81;100.00;100772.69;4993004;28;20148;-68
2024/03/07 00:48:16;;;;;;;16.30;4.65;;;;;;;3.84;100.00;100773.28;4988800;28;20023;-67
2024/03/07 00:50:42;;;;;;;12.88;5.57;;;;;;;3.80;100.00;100767.47;4992758;28;20027;-68
2024/03/07 00:53:08;;;;;;;13.25;5.40;;;;;;;3.79;100.00;100766.63;4975046;28;20504;-67
2024/03/07 00:55:34;;;;;;;16.58;5.47;;;;;;;3.78;100.00;100764.94;4995697;28;20631;-67
2024/03/07 00:57:59;;;;;;;17.77;6.13;;;;;;;3.78;100.00;100770.44;4993693;28;20039;-67
2024/03/07 01:00:25;;;;;;;15.35;5.13;;;;;;;3.75;100.00;100759.94;4991027;28;20499;-67
2024/03/07 01:02:53;;;;;;;15.32;5.20;;;;;;;3.70;100.00;100757.06;4977572;28;20108;-67
2024/03/07 01:05:19;;;;;;;12.63;5.63;;;;;;;3.72;100.00;100754.09;4979771;28;20033;-67
2024/03/07 01:07:47;;;;;;;15.95;5.53;;;;;;;3.73;100.00;100751.13;5021479;28;20057;-68
2024/03/07 01:10:13;;;;;;;14.77;5.30;;;;;;;3.71;100.00;100753.25;4993493;28;20026;-67
2024/03/07 01:12:39;;;;;;;16.30;5.40;;;;;;;3.71;100.00;100744.19;4963486;28;20038;-67
2024/03/07 01:15:05;;;;;;;15.48;5.80;;;;;;;3.70;100.00;100746.09;5014214;28;20518;-67
2024/03/07 01:17:32;;;;;;;13.93;5.38;;;;;;;3.64;100.00;100738.81;4962945;28;20030;-67
2024/03/07 01:19:58;;;;;;;15.40;5.30;;;;;;;3.68;100.00;100737.28;4993895;28;20031;-67
2024/03/07 01:22:24;;;;;;;15.25;5.88;;;;;;;3.61;100.00;100736.56;4977489;28;20387;-67
2024/03/07 01:24:50;;;;;;;10.90;5.15;;;;;;;3.60;100.00;100734.91;4965683;28;20043;-67
2024/03/07 01:27:16;;;;;;;13.70;5.97;;;;;;;3.59;100.00;100724.97;4965186;28;20041;-67
2024/03/07 01:29:44;;;;;;;15.63;6.20;;;;;;;3.55;100.00;100723.81;5008548;28;20039;-67
2024/03/07 01:32:10;;;;;;;16.45;5.90;;;;;;;3.52;100.00;100727.88;4962559;28;20038;-67
2024/03/07 01:34:35;;;;;;;12.25;5.28;;;;;;;3.51;100.00;100720.72;4991890;28;20038;-68
2024/03/07 01:37:01;;;;;;;13.88;5.20;;;;;;;3.46;100.00;100717.03;4961552;28;20403;-67
2024/03/07 01:39:27;;;;;;;15.88;5.50;;;;;;;3.45;100.00;100715.34;4982370;28;20042;-67
2024/03/07 01:41:52;;;;;;;12.23;5.25;;;;;;;3.45;100.00;100707.09;4982958;28;20383;-68
2024/03/07 01:44:18;;;;;;;11.40;5.10;;;;;;;3.52;100.00;100699.56;4975136;28;20034;-67
2024/03/07 01:46:43;;;;;;;12.23;4.80;;;;;;;3.49;100.00;100694.56;4994894;28;20038;-68
2024/03/07 01:49:09;;;;;;;14.30;5.35;;;;;;;3.45;100.00;100696.13;4990524;28;20027;-67
2024/03/07 01:51:36;;;;;;;11.48;5.40;;;;;;;3.45;100.00;100688.72;4962578;28;20027;-67
2024/03/07 01:54:02;;;;;;;12.63;5.43;;;;;;;3.45;100.00;100687.88;5003231;28;20092;-68
2024/03/07 01:56:28;;;;;;;15.25;5.32;;;;;;;3.35;100.00;100686.59;4994938;28;20033;-67
2024/03/07 01:58:53;;;;;;;20.00;6.75;;;;;;;3.34;100.00;100681.34;4991610;28;20034;-67
2024/03/07 02:01:19;;;;;;;15.68;5.95;;;;;;;3.35;100.00;100683.03;4977246;28;20502;-68
2024/03/07 02:03:44;;;;;;;15.05;5.65;;;;;;;3.34;100.00;100676.72;5007920;28;20035;-68
2024/03/07 02:06:12;;;;;;;17.52;5.72;;;;;;;3.39;100.00;100677.88;4974103;28;20041;-67
2024/03/07 02:08:37;;;;;;;13.63;5.30;;;;;;;3.35;100.00;100672.88;4975361;28;20030;-68
2024/03/07 02:11:03;;;;;;;12.85;5.72;;;;;;;3.33;100.00;100672.28;4973842;28;20034;-68
2024/03/07 02:13:28;;;;;;;12.27;5.18;;;;;;;3.31;100.00;100670.84;5011313;28;20152;-68
2024/03/07 02:15:54;;;;;;;13.63;5.55;;;;;;;3.28;100.00;100674.91;4994961;28;20109;-68
2024/03/07 02:18:20;;;;;;;15.10;5.25;;;;;;;3.23;100.00;100669.34;4994723;28;20084;-67
2024/03/07 02:20:48;;;;;;;15.07;5.78;;;;;;;3.23;100.00;100669.34;4994737;28;20080;-68
2024/03/07 02:23:14;;;;;;;12.40;5.75;;;;;;;3.18;100.00;100671.97;4990931;28;20034;-68
2024/03/07 02:25:40;;;;;;;18.85;6.20;;;;;;;3.10;100.00;100659.44;5009541;28;20030;-68
2024/03/07 02:28:05;;;;;;;13.93;5.53;;;;;;;3.05;100.00;100659.31;4993574;28;20062;-68
2024/03/07 02:30:34;;;;;;;16.17;5.85;;;;;;;3.09;100.00;100659.66;4946335;28;20035;-68
2024/03/07 02:33:06;;;;;;;13.57;5.55;;;;;;;3.04;100.00;100663.16;5015066;28;20125;-67
2024/03/07 02:35:37;;;;;;;16.85;5.50;;;;;;;2.99;100.00;100659.47;4994566;28;20775;-68
2024/03/07 02:38:03;;;;;;;18.88;5.45;;;;;;;2.96;100.00;100651.72;4979274;28;20042;-68
2024/03/07 02:40:29;;;;;;;19.20;5.97;;;;;;;2.89;100.00;100651.81;4962347;28;20615;-67
2024/03/07 02:42:54;;;;;;;16.60;5.72;;;;;;;2.93;100.00;100644.78;5002066;28;20030;-68
2024/03/07 02:45:20;;;;;;;15.48;6.00;;;;;;;2.93;100.00;100650.28;4962274;28;20031;-67
2024/03/07 02:47:46;;;;;;;16.13;5.10;;;;;;;2.91;100.00;100646.94;4977882;28;20387;-67
2024/03/07 02:50:11;;;;;;;16.88;5.55;;;;;;;2.89;100.00;100646.31;4973290;28;20065;-68
2024/03/07 02:52:37;;;;;;;12.93;5.30;;;;;;;2.89;100.00;100649.91;4989637;28;20022;-67
2024/03/07 02:55:05;;;;;;;20.20;6.35;;;;;;;2.87;100.00;100646.59;4993752;28;20030;-68
2024/03/07 02:57:31;;;;;;;15.27;5.35;;;;;;;2.85;100.00;100645.97;4998127;28;20054;-68
2024/03/07 02:59:57;;;;;;;15.88;5.65;;;;;;;2.83;100.00;100637.16;4995809;28;20034;-67
2024/03/07 03:02:22;;;;;;;16.05;5.97;;;;;;;2.80;100.00;100643.13;4997956;28;20030;-68
2024/03/07 03:04:48;;;;;;;16.55;5.65;;;;;;;2.80;100.00;100636.81;4981834;28;20112;-68
2024/03/07 03:07:14;;;;;;;16.70;5.10;;;;;;;2.82;100.00;100634.66;4982054;28;20035;-68
2024/03/07 03:09:43;;;;;;;20.70;5.85;;;;;;;2.78;100.00;100634.28;4981764;28;20080;-68
2024/03/07 03:12:12;;;;;;;14.90;5.40;;;;;;;2.72;100.00;100632.50;4997612;28;20037;-68
2024/03/07 03:14:37;;;;;;;17.02;6.10;;;;;;;2.76;100.00;100633.72;4994562;28;20081;-68
2024/03/07 03:17:03;;;;;;;21.85;6.03;;;;;;;2.76;100.00;100630.97;4989317;28;20030;-67
2024/03/07 03:19:28;;;;;;;14.32;5.15;;;;;;;2.75;100.00;100629.28;5014913;28;20030;-67
2024/03/07 03:21:55;;;;;;;14.38;5.30;;;;;;;2.76;100.00;100620.00;4994494;28;20031;-68
2024/03/07 03:24:21;;;;;;;20.02;5.68;;;;;;;2.74;100.00;100629.53;4980681;28;20030;-67
2024/03/07 03:26:47;;;;;;;12.13;5.03;;;;;;;2.75;100.00;100626.53;4990178;28;20057;-67
2024/03/07 03:29:13;;;;;;;14.70;4.90;;;;;;;2.73;100.00;100617.75;4988246;28;20034;-68
2024/03/07 03:31:39;;;;;;;14.13;5.18;;;;;;;2.74;100.00;100613.91;4974564;28;20042;-67
2024/03/07 03:34:05;;;;;;;20.25;5.50;;;;;;;2.75;100.00;100612.84;4984172;28;20034;-68
2024/03/07 03:36:30;;;;;;;15.13;5.18;;;;;;;2.75;100.00;100609.25;4977801;28;20039;-68
2024/03/07 03:38:56;;;;;;;13.07;5.40;;;;;;;2.78;100.00;100606.84;4981110;28;20053;-68
2024/03/07 03:41:22;;;;;;;14.43;5.28;;;;;;;2.78;100.00;100600.53;4997497;28;20030;-68
2024/03/07 03:43:48;;;;;;;15.65;5.22;;;;;;;2.78;100.00;100601.38;4997366;28;20773;-67
2024/03/07 03:46:13;;;;;;;16.85;5.70;;;;;;;2.80;100.00;100601.16;4955304;28;20026;-68
2024/03/07 03:48:40;;;;;;;20.30;5.72;;;;;;;2.78;100.00;100589.56;4996307;28;20035;-67
2024/03/07 03:51:12;;;;;;;19.88;5.43;;;;;;;2.76;100.00;100594.47;5009951;28;20035;-67
2024/03/07 03:53:38;;;;;;;15.75;6.43;;;;;;;2.75;100.00;100596.38;5010906;28;20545;-67
2024/03/07 03:56:07;;;;;;;16.98;5.55;;;;;;;2.74;100.00;100591.97;5013508;28;20113;-67
2024/03/07 03:58:32;;;;;;;15.38;5.32;;;;;;;2.76;100.00;100591.72;4996968;28;20034;-67
2024/03/07 04:01:01;;;;;;;13.07;6.10;;;;;;;2.76;100.00;100589.84;4997594;28;20038;-67
2024/03/07 04:03:26;;;;;;;15.75;5.65;;;;;;;2.79;100.00;100585.78;4977300;28;20027;-67
2024/03/07 04:05:52;;;;;;;16.10;6.13;;;;;;;2.77;100.00;100588.75;4989324;28;20540;-67
2024/03/07 04:08:19;;;;;;;13.50;6.05;;;;;;;2.78;100.00;100573.13;4980778;28;20034;-68
2024/03/07 04:10:45;;;;;;;13.93;5.50;;;;;;;2.78;100.00;100579.44;5004593;28;20091;-68
2024/03/07 04:13:10;;;;;;;17.30;5.43;;;;;;;2.77;100.00;100575.03;4980254;28;20026;-67
2024/03/07 04:15:36;;;;;;;21.55;6.63;;;;;;;2.79;100.00;100572.88;4964197;28;20042;-67
2024/03/07 04:18:01;;;;;;;19.13;6.28;;;;;;;2.78;100.00;100573.13;4980249;28;20038;-67
2024/03/07 04:20:28;;;;;;;16.55;5.80;;;;;;;2.72;100.00;100569.44;4982124;28;20403;-67
2024/03/07 04:22:55;;;;;;;15.63;5.40;;;;;;;2.75;100.00;100566.22;4996408;28;20061;-67
2024/03/07 04:25:21;;;;;;;15.80;5.93;;;;;;;2.73;100.00;100568.38;4988315;28;20026;-67
2024/03/07 04:27:46;;;;;;;16.27;5.40;;;;;;;2.76;100.00;100569.78;4980018;28;20038;-68
2024/03/07 04:30:12;;;;;;;19.35;5.80;;;;;;;2.72;100.00;100561.19;4980439;28;20034;-68
2024/03/07 04:32:38;;;;;;;14.70;5.38;;;;;;;2.70;100.00;100560.59;4979820;28;20121;-68
2024/03/07 04:35:07;;;;;;;17.13;6.47;;;;;;;2.73;100.00;100559.28;4980319;28;20034;-68
2024/03/07 04:37:36;;;;;;;13.32;5.68;;;;;;;2.69;100.00;100558.94;4993265;28;20031;-67
2024/03/07 04:40:15;;;;;;;16.45;5.70;;;;;;;2.71;100.00;100562.28;4982244;28;20038;-67
2024/03/07 04:42:50;;;;;;;14.90;5.43;;;;;;;2.72;100.00;100566.69;5002445;28;20022;-67
2024/03/07 04:45:16;;;;;;;13.20;5.72;;;;;;;2.74;100.00;100563.72;4995727;28;20042;-67
2024/03/07 04:47:42;;;;;;;17.55;5.57;;;;;;;2.73;100.00;100557.41;4995597;28;20031;-67
2024/03/07 04:50:10;;;;;;;11.95;6.10;;;;;;;2.71;100.00;100562.28;4990173;28;20030;-67
2024/03/07 04:52:37;;;;;;;15.57;5.70;;;;;;;2.73;100.00;100559.28;4975096;28;20101;-68
2024/03/07 04:55:11;;;;;;;13.80;4.97;;;;;;;2.72;100.00;100561.19;4976861;28;20165;-67
2024/03/07 04:57:40;;;;;;;15.00;4.97;;;;;;;2.70;100.00;100560.59;4991977;28;20109;-67
2024/03/07 05:00:14;;;;;;;11.80;5.63;;;;;;;2.74;100.00;100566.47;4995228;28;20386;-68
2024/03/07 05:02:43;;;;;;;12.43;4.70;;;;;;;2.72;100.00;100552.97;4992075;28;20035;-67
2024/03/07 05:05:08;;;;;;;13.95;5.75;;;;;;;2.74;100.00;100569.22;4981634;28;20034;-68
2024/03/07 05:07:35;;;;;;;16.42;5.78;;;;;;;2.71;100.00;100564.22;4995828;28;20022;-67
2024/03/07 05:10:04;;;;;;;12.10;5.38;;;;;;;2.72;100.00;100561.19;4992698;28;20039;-67
2024/03/07 05:12:30;;;;;;;14.93;5.63;;;;;;;2.72;100.00;100552.97;4995023;28;20042;-68
2024/03/07 05:14:56;;;;;;;12.40;5.45;;;;;;;2.70;100.00;100555.13;4976187;28;20042;-67
2024/03/07 05:17:22;;;;;;;13.73;5.57;;;;;;;2.71;100.00;100559.56;4988025;28;20034;-68
2024/03/07 05:19:48;;;;;;;17.15;5.63;;;;;;;2.70;100.00;100555.13;4995599;28;20034;-67
2024/03/07 05:22:15;;;;;;;13.57;5.25;;;;;;;2.68;100.00;100549.88;4995402;28;20061;-67
2024/03/07 05:24:44;;;;;;;9.95;5.13;;;;;;;2.72;100.00;100555.72;4975834;28;20026;-68
2024/03/07 05:27:15;;;;;;;15.18;5.65;;;;;;;2.69;100.00;100548.81;4997531;28;20030;-67
2024/03/07 05:29:41;;;;;;;15.48;5.53;;;;;;;2.64;100.00;100550.59;4979520;28;20632;-67
2024/03/07 05:32:39;;;;;;;17.52;5.25;;;;;;;2.64;100.00;100550.59;5010990;28;20121;-67
2024/03/07 05:35:06;;;;;;;14.23;5.10;;;;;;;2.61;100.00;100545.59;4955436;28;20042;-67
2024/03/07 05:37:32;;;;;;;12.20;4.60;;;;;;;2.59;100.00;100543.13;4992022;28;20522;-68
2024/03/07 05:39:57;;;;;;;16.15;4.93;;;;;;;2.61;100.00;100545.59;4993676;28;20026;-67
2024/03/07 05:42:24;;;;;;;10.85;4.68;;;;;;;2.59;100.00;100536.78;4966978;28;20030;-67
2024/03/07 05:44:51;;;;;;;12.60;5.55;;;;;;;2.59;100.00;100539.50;4986743;28;20602;-67
2024/03/07 05:47:17;;;;;;;15.02;5.38;;;;;;;2.57;100.00;100541.69;4975437;28;20026;-68
2024/03/07 05:49:42;;;;;;;12.10;5.47;;;;;;;2.52;100.00;100536.91;4978230;28;20041;-67
2024/03/07 05:52:08;;;;;;;11.77;5.40;;;;;;;2.49;100.00;100531.09;4978848;28;20033;-67
2024/03/07 05:54:34;;;;;;;19.00;5.95;;;;;;;2.52;100.00;100530.59;4979178;28;20034;-67
2024/03/07 05:57:00;;;;;;;12.10;4.97;;;;;;;2.54;100.00;100523.81;4979006;28;20030;-67
2024/03/07 05:59:26;;;;;;;12.95;5.25;;;;;;;2.50;100.00;100521.78;4959396;28;20027;-68
2024/03/07 06:01:52;;;;;;;11.85;4.88;;;;;;;2.54;100.00;100522.97;4977853;28;20030;-67
2024/03/07 06:04:17;;;;;;;13.82;5.05;;;;;;;2.52;100.00;100512.25;4975792;28;20081;-68
2024/03/07 06:06:43;;;;;;;12.05;5.65;;;;;;;2.54;100.00;100517.50;4960540;28;20061;-67
2024/03/07 06:09:09;;;;;;;16.58;5.32;;;;;;;2.53;100.00;100513.06;4986824;28;20515;-68
2024/03/07 06:11:35;;;;;;;15.88;5.72;;;;;;;2.53;100.00;100504.84;4962417;28;20113;-68
2024/03/07 06:14:03;;;;;;;13.38;5.20;;;;;;;2.52;100.00;100514.16;4979165;28;20030;-67
2024/03/07 06:16:33;;;;;;;16.42;5.10;;;;;;;2.52;100.00;100509.50;4947228;28;20080;-67
2024/03/07 06:19:08;;;;;;;10.18;4.95;;;;;;;2.53;100.00;100516.63;4978670;28;20030;-67
2024/03/07 06:21:34;;;;;;;13.13;5.35;;;;;;;2.49;100.00;100509.16;4994731;28;20443;-67
2024/03/07 06:24:00;;;;;;;12.88;5.45;;;;;;;2.50;100.00;100514.38;5006874;28;20112;-67
2024/03/07 06:26:47;;;;;;;11.70;5.60;;;;;;;2.54;100.00;100515.59;4994711;28;20105;-67
2024/03/07 06:29:15;;;;;;;13.73;4.88;;;;;;;2.54;100.00;100506.53;4996277;28;20526;-67
2024/03/07 06:31:41;;;;;;;11.38;5.95;;;;;;;2.56;100.00;100501.63;4965749;28;20126;-67
2024/03/07 06:34:08;;;;;;;19.60;5.50;;;;;;;2.55;100.00;100499.97;4985938;28;20030;-68
2024/03/07 06:36:35;;;;;;;12.63;6.60;;;;;;;2.52;100.00;100511.41;4992038;28;20479;-67
2024/03/07 06:39:01;;;;;;;13.55;5.43;;;;;;;2.56;100.00;100504.34;4978988;28;20069;-68
2024/03/07 06:41:26;;;;;;;13.57;5.32;;;;;;;2.58;100.00;100497.56;4947082;28;20026;-67
2024/03/07 06:43:55;;;;;;;10.88;5.47;;;;;;;2.58;100.00;100500.31;4963508;28;20112;-67
2024/03/07 06:46:21;;;;;;;14.25;5.70;;;;;;;2.59;100.00;100496.50;4956394;28;20058;-67
2024/03/07 06:48:46;;;;;;;15.55;6.03;;;;;;;2.59;100.00;100499.25;4965266;28;20522;-67
2024/03/07 06:51:13;;;;;;;9.80;5.93;;;;;;;2.61;100.00;100501.72;5004480;28;20026;-67
2024/03/07 06:53:39;;;;;;;10.80;5.72;;;;;;;2.61;100.00;100496.25;4996602;28;20058;-67
2024/03/07 06:56:06;;;;;;;13.50;6.65;;;;;;;2.62;100.00;100495.19;4998199;28;20620;-67
2024/03/07 06:58:32;;;;;;;13.38;6.82;;;;;;;2.65;100.00;100497.44;4998004;28;20034;-67
2024/03/07 07:00:59;;;;;;;13.63;6.22;;;;;;;2.70;100.00;100500.28;4972883;28;20035;-67
2024/03/07 07:03:24;;;;;;;14.35;6.32;;;;;;;2.72;100.00;100495.38;5023840;28;20665;-68
2024/03/07 07:05:50;;;;;;;13.02;7.22;;;;;;;2.78;100.00;100497.16;4982201;28;20096;-68
2024/03/07 07:08:16;;;;;;;16.77;6.63;;;;;;;2.82;100.00;100492.88;4981676;28;20062;-67
2024/03/07 07:10:42;;;;;;;15.13;6.28;;;;;;;2.91;100.00;100496.06;4962093;28;20034;-69
2024/03/07 07:13:11;;;;;;;15.88;6.78;;;;;;;2.99;100.00;100492.09;4964014;28;20027;-68
2024/03/07 07:15:39;;;;;;;12.98;6.88;;;;;;;3.05;100.00;100485.63;4982622;28;20488;-68
2024/03/07 07:18:07;;;;;;;17.08;6.85;;;;;;;3.13;100.00;100486.06;4980376;28;20515;-67
2024/03/07 07:20:34;;;;;;;18.30;6.80;;;;;;;3.23;100.00;100487.31;4997145;28;20558;-68
2024/03/07 07:23:00;;;;;;;18.63;7.38;;;;;;;3.29;100.00;100486.34;4980728;28;20034;-68
2024/03/07 07:25:27;;;;;;;13.00;6.85;;;;;;;3.36;100.00;100481.53;5000342;28;20021;-68
2024/03/07 07:27:53;;;;;;;13.88;6.13;;;;;;;3.47;100.00;100483.38;4997702;28;20562;-68
2024/03/07 07:30:23;;;;;;;9.98;5.95;;;;;;;3.56;100.00;100486.53;5007834;28;20128;-68
2024/03/07 07:32:48;;;;;;;12.05;6.25;;;;;;;3.64;100.00;100482.56;4995663;28;20082;-68
2024/03/07 07:35:15;;;;;;;10.10;5.82;;;;;;;3.75;100.00;100487.16;4981150;28;20035;-68
2024/03/07 07:37:48;;;;;;;14.05;6.57;;;;;;;3.86;100.00;100482.66;4994163;28;20066;-68
2024/03/07 07:40:18;;;;;;;13.88;5.63;;;;;;;3.90;100.00;100476.41;4993088;28;20053;-68
2024/03/07 07:42:46;;;;;;;12.05;5.90;;;;;;;4.01;100.00;100471.88;4988683;28;20049;-68
2024/03/07 07:45:13;;;;;;;16.60;6.25;;;;;;;4.14;100.00;100465.22;5013510;28;20060;-67
2024/03/07 07:47:45;;;;;;;12.68;6.07;;;;;;;4.24;100.00;100462.63;4996544;28;20098;-68
2024/03/07 07:50:17;;;;;;;13.05;6.15;;;;;;;4.34;100.00;100462.75;5005148;28;20030;-68
2024/03/07 07:52:47;;;;;;;13.43;6.03;;;;;;;4.45;100.00;100456.28;4981338;28;20085;-68
2024/03/07 07:55:23;;;;;;;10.10;5.47;;;;;;;4.57;100.00;100460.84;5024278;28;20491;-68
2024/03/07 07:57:52;;;;;;;14.82;5.90;;;;;;;4.64;100.00;100448.56;4992715;28;20034;-68
2024/03/07 08:00:24;;;;;;;9.75;5.20;;;;;;;4.76;100.00;100450.34;4991690;28;20039;-68
2024/03/07 08:02:54;;;;;;;13.63;6.32;;;;;;;4.84;100.00;100458.16;4978333;28;20114;-68
2024/03/07 08:05:24;;;;;;;11.93;5.20;;;;;;;4.96;100.00;100456.13;4993171;28;20043;-68
2024/03/07 08:07:56;;;;;;;11.95;5.75;;;;;;;5.05;100.00;100449.03;4991240;28;20496;-68
2024/03/07 08:10:28;;;;;;;10.30;5.18;;;;;;;5.19;100.00;100445.88;4977315;28;20034;-68
2024/03/07 08:12:57;;;;;;;10.40;5.15;;;;;;;5.28;100.00;100438.81;4961331;28;20085;-69
2024/03/07 08:15:23;;;;;;;12.07;5.20;;;;;;;5.38;100.00;100433.41;4993256;28;20041;-68
2024/03/07 08:17:48;;;;;;;12.20;5.55;;;;;;;5.49;100.00;100429.66;4977944;28;20035;-68
2024/03/07 08:20:15;;;;;;;9.93;5.13;;;;;;;5.58;100.00;100421.72;4980588;28;20026;-68
2024/03/07 08:22:42;;;;;;;11.60;4.95;;;;;;;5.67;100.00;100422.06;4979045;28;20031;-68
2024/03/07 08:25:12;;;;;;;8.77;4.68;;;;;;;5.75;100.00;100427.91;4981840;28;20031;-68
2024/03/07 08:27:38;;;;;;;11.13;5.03;;;;;;;5.82;100.00;100416.66;4997134;28;20037;-68
2024/03/07 08:30:08;;;;;;;10.45;4.43;;;;;;;5.96;100.00;100417.06;4998784;28;20677;-68
2024/03/07 08:32:37;;;;;;;10.18;4.47;;;;;;;6.09;100.00;100418.53;5008202;28;20049;-68
2024/03/07 08:35:06;;;;;;;10.75;4.75;;;;;;;6.18;100.00;100416.91;4980521;28;20052;-68
2024/03/07 08:37:34;;;;;;;8.07;4.05;;;;;;;6.30;100.00;100403.75;4979983;28;20034;-68
2024/03/07 08:40:10;;;;;;;11.68;4.40;;;;;;;6.44;100.00;100413.22;4994440;28;20050;-68
2024/03/07 08:42:41;;;;;;;6.43;3.92;;;;;;;6.57;100.00;100398.06;5001661;28;20030;-68
2024/03/07 08:45:10;;;;;;;6.88;3.47;;;;;;;6.73;100.00;100396.19;4999581;28;20031;-68
2024/03/07 08:47:36;;;;;;;10.38;4.18;;;;;;;6.80;100.00;100394.03;4990223;28;20058;-68
2024/03/07 08:50:06;;;;;;;8.02;3.47;;;;;;;6.89;100.00;100381.34;5019713;28;20101;-68
2024/03/07 08:52:32;;;;;;;10.15;4.03;;;;;;;7.01;100.00;100380.25;4990090;28;20034;-68
2024/03/07 08:54:57;;;;;;;11.68;4.30;;;;;;;7.13;100.00;100380.81;4969955;28;20050;-68
2024/03/07 08:57:23;;;;;;;8.45;3.72;;;;;;;7.23;100.00;100371.72;4992693;28;20038;-68
2024/03/07 08:59:48;;;;;;;8.25;3.20;;;;;;;7.26;100.00;100383.03;4979543;28;20026;-68
2024/03/07 09:02:14;;;;;;;9.30;2.83;;;;;;;7.32;100.00;100384.69;4999327;28;20386;-68
2024/03/07 09:04:40;;;;;;;6.35;3.03;;;;;;;7.37;100.00;100375.59;4995706;28;20056;-68
2024/03/07 09:07:06;;;;;;;6.75;3.00;;;;;;;7.44;100.00;100372.53;4988737;28;20038;-68
2024/03/07 09:09:32;;;;;;;9.23;3.28;;;;;;;7.46;100.00;100370.34;4975151;28;20037;-68
2024/03/07 09:11:57;;;;;;;7.93;2.95;;;;;;;7.46;100.00;100364.81;5008666;28;20038;-68
2024/03/07 09:14:23;;;;;;;6.20;3.13;;;;;;;7.44;100.00;100367.03;4977369;28;20041;-68
2024/03/07 09:16:49;;;;;;;7.55;2.90;;;;;;;7.45;100.00;100363.16;4992154;28;20027;-68
2024/03/07 09:19:19;;;;;;;9.85;3.45;;;;;;;7.50;100.00;100360.41;4991946;28;20030;-68
2024/03/07 09:21:46;;;;;;;8.25;3.00;;;;;;;7.48;100.00;100351.56;4992931;28;20391;-68
2024/03/07 09:24:12;;;;;;;7.28;3.20;;;;;;;7.51;100.00;100346.28;4963319;28;20027;-68
2024/03/07 09:26:37;;;;;;;7.15;2.80;;;;;;;7.51;100.00;100349.06;4995770;28;20109;-68
2024/03/07 09:29:05;;;;;;;8.93;2.80;;;;;;;7.49;100.00;100347.69;4978162;28;20487;-68
2024/03/07 09:31:32;;;;;;;5.93;3.10;;;;;;;7.49;100.00;100344.91;4963239;28;20514;-68
2024/03/07 09:33:58;;;;;;;10.32;2.97;;;;;;;7.54;100.00;100344.91;4996638;28;20526;-68
2024/03/07 09:36:24;;;;;;;7.35;2.78;;;;;;;7.54;100.00;100339.38;4979444;28;20113;-68
2024/03/07 09:38:49;;;;;;;5.90;2.45;;;;;;;7.64;100.00;100327.50;4995597;28;20034;-68
2024/03/07 09:41:18;;;;;;;7.63;2.47;;;;;;;7.65;100.00;100335.50;4995331;28;20037;-68
2024/03/07 09:43:46;;;;;;;10.82;3.10;;;;;;;7.76;100.00;100339.91;4994358;28;20073;-68
2024/03/07 09:46:12;;;;;;;5.35;2.50;;;;;;;7.84;100.00;100327.44;4983828;28;20447;-68
2024/03/07 09:48:37;;;;;;;9.98;2.72;;;;;;;7.91;100.00;100316.09;4992156;28;20026;-68
2024/03/07 09:51:04;;;;;;;8.98;2.70;;;;;;;8.06;100.00;100319.63;4991860;28;20093;-68
2024/03/07 09:53:30;;;;;;;7.18;2.30;;;;;;;8.17;100.00;100308.56;4977293;28;20064;-68
2024/03/07 09:55:57;;;;;;;9.02;2.40;;;;;;;8.25;100.00;100311.56;4991914;28;20673;-68
2024/03/07 09:58:22;;;;;;;5.63;2.22;;;;;;;8.41;100.00;100297.66;4979290;28;20440;-68
2024/03/07 10:00:50;;;;;;;7.22;2.25;;;;;;;8.47;100.00;100296.53;4996143;28;20069;-68
2024/03/07 10:03:16;;;;;;;6.57;2.40;;;;;;;8.55;100.00;100301.44;4994282;28;20041;-68
2024/03/07 10:05:42;;;;;;;5.43;1.90;;;;;;;8.64;100.00;100290.63;4993551;28;20042;-68
2024/03/07 10:08:07;;;;;;;10.07;1.98;;;;;;;8.74;100.00;100293.31;5011158;28;20038;-68
2024/03/07 10:10:33;;;;;;;6.57;2.30;;;;;;;8.82;100.00;100281.63;4996315;28;20041;-68
2024/03/07 10:12:59;;;;;;;5.95;2.10;;;;;;;8.92;100.00;100287.09;5006002;28;20123;-68
2024/03/07 10:15:29;;;;;;;5.50;2.08;;;;;;;9.11;100.00;100278.91;4979005;28;20479;-68
2024/03/07 10:17:54;;;;;;;5.25;2.30;;;;;;;9.17;100.00;100276.94;4975014;28;20023;-68
2024/03/07 10:20:24;;;;;;;9.00;2.10;;;;;;;9.28;100.00;100272.13;4971416;28;20062;-68
2024/03/07 10:22:49;;;;;;;5.18;2.03;;;;;;;9.39;100.00;100268.16;4981907;28;20117;-68
2024/03/07 10:25:21;;;;;;;8.68;1.92;;;;;;;9.46;100.00;100263.06;4978618;28;20520;-68
2024/03/07 10:27:50;;;;;;;3.90;1.95;;;;;;;9.50;100.00;100268.84;4975109;28;20119;-68
2024/03/07 10:30:20;;;;;;;6.00;1.65;;;;;;;9.55;100.00;100272.38;4982895;28;20636;-68
2024/03/07 10:32:53;;;;;;;6.55;1.80;;;;;;;9.56;100.00;100271.28;4977004;28;20038;-68
2024/03/07 10:35:25;;;;;;;6.65;1.63;;;;;;;9.60;100.00;100261.25;4978522;28;20027;-68
2024/03/07 10:37:54;;;;;;;4.43;1.67;;;;;;;9.66;100.00;100255.66;4991124;28;20046;-68
2024/03/07 10:40:21;;;;;;;6.20;1.80;;;;;;;9.72;100.00;100254.47;4975917;28;20626;-68
2024/03/07 10:42:51;;;;;;;8.85;1.83;;;;;;;9.81;100.00;100252.72;5001596;28;20113;-68
2024/03/07 10:45:18;;;;;;;6.40;1.80;;;;;;;9.84;100.00;100247.41;4993866;28;20403;-68
2024/03/07 10:47:45;;;;;;;5.03;1.52;;;;;;;9.89;100.00;100249.31;4994170;28;20080;-68
2024/03/07 10:50:20;;;;;;;5.63;1.67;;;;;;;9.85;100.00;100246.28;4987528;28;20094;-68
2024/03/07 10:52:53;;;;;;;7.22;1.40;;;;;;;9.87;100.00;100234.91;4973087;28;20119;-68
2024/03/07 10:55:36;;;;;;;;;;;;;;;9.95;100.00;100236.19;4976916;28;20066;-68
2024/03/07 10:58:11;;;;;;;5.90;1.60;;;;;;;10.03;100.00;100241.09;4992928;28;19925;-68
2024/03/07 11:00:36;;;;;;;5.88;1.48;;;;;;;10.03;100.00;100232.75;4959444;28;20027;-68
2024/03/07 11:03:06;;;;;;;5.53;1.60;;;;;;;10.06;100.00;100224.66;5004849;28;20642;-68
2024/03/07 11:05:32;;;;;;;8.93;1.65;;;;;;;10.09;100.00;100214.09;4975929;28;20041;-68
2024/03/07 11:08:06;;;;;;;6.97;1.60;;;;;;;10.12;100.00;100205.19;4962494;28;20035;-68
2024/03/07 11:10:31;;;;;;;5.25;1.50;;;;;;;10.11;100.00;100215.44;4962636;28;20118;-68
2024/03/07 11:12:57;;;;;;;5.47;2.03;;;;;;;10.16;100.00;100214.53;4977968;28;20652;-68
2024/03/07 11:15:26;;;;;;;3.17;1.83;;;;;;;10.16;100.00;100197.88;4962348;28;20505;-68
2024/03/07 11:17:53;;;;;;;5.93;1.60;;;;;;;10.18;100.00;100196.47;4997688;28;20156;-68
2024/03/07 11:20:22;;;;;;;6.50;1.70;;;;;;;10.24;100.00;100194.44;4981209;28;20536;-68